sensor_id;sensor_type;location;lat;lon;timestamp;temperature;humidity
40287;DHT22;25998;46.604;13.610;2022-08-16T00:03:02;18.40;99.90
40287;DHT22;25998;46.604;13.610;2022-08-16T00:06:13;18.20;99.90
40287;DHT22;25998;46.604;13.610;2022-08-16T00:09:25;18.20;99.90
40287;DHT22;25998;46.604;13.610;2022-08-16T00:12:36;18.10;99.90
40287;DHT22;25998;46.604;13.610;2022-08-16T00:15:51;18.10;99.90
40287;DHT22;25998;46.604;13.610;2022-08-16T00:19:02;17.90;99.90
40287;DHT22;25998;46.604;13.610;2022-08-16T00:22:14;18.20;99.90
40287;DHT22;25998;46.604;13.610;2022-08-16T00:25:25;18.50;99.90
40287;DHT22;25998;46.604;13.610;2022-08-16T00:28:36;18.50;99.90
40287;DHT22;25998;46.604;13.610;2022-08-16T00:31:49;18.30;99.90
40287;DHT22;25998;46.604;13.610;2022-08-16T00:35:01;18.10;99.90
40287;DHT22;25998;46.604;13.610;2022-08-16T00:38:12;18.00;99.90
40287;DHT22;25998;46.604;13.610;2022-08-16T00:41:24;18.00;99.90
40287;DHT22;25998;46.604;13.610;2022-08-16T00:44:36;18.00;99.90
40287;DHT22;25998;46.604;13.610;2022-08-16T00:47:49;18.40;99.90
40287;DHT22;25998;46.604;13.610;2022-08-16T00:51:01;18.60;99.90
40287;DHT22;25998;46.604;13.610;2022-08-16T00:54:12;18.80;99.90
40287;DHT22;25998;46.604;13.610;2022-08-16T00:57:23;18.90;99.90
40287;DHT22;25998;46.604;13.610;2022-08-16T01:00:34;18.80;99.90
40287;DHT22;25998;46.604;13.610;2022-08-16T01:03:48;18.50;99.90
40287;DHT22;25998;46.604;13.610;2022-08-16T01:07:00;18.50;99.90
40287;DHT22;25998;46.604;13.610;2022-08-16T01:10:12;18.70;99.90
40287;DHT22;25998;46.604;13.610;2022-08-16T01:13:29;18.70;99.90
40287;DHT22;25998;46.604;13.610;2022-08-16T01:16:42;18.70;99.90
40287;DHT22;25998;46.604;13.610;2022-08-16T01:19:58;18.60;99.90
40287;DHT22;25998;46.604;13.610;2022-08-16T01:23:16;18.60;99.90
40287;DHT22;25998;46.604;13.610;2022-08-16T01:26:29;18.30;99.90
40287;DHT22;25998;46.604;13.610;2022-08-16T01:30:15;18.30;99.90
40287;DHT22;25998;46.604;13.610;2022-08-16T01:33:27;18.50;99.90
40287;DHT22;25998;46.604;13.610;2022-08-16T01:36:38;18.40;99.90
40287;DHT22;25998;46.604;13.610;2022-08-16T01:39:49;18.50;99.90
40287;DHT22;25998;46.604;13.610;2022-08-16T01:43:00;18.70;99.90
40287;DHT22;25998;46.604;13.610;2022-08-16T01:46:30;18.80;99.90
40287;DHT22;25998;46.604;13.610;2022-08-16T01:49:41;18.80;99.90
40287;DHT22;25998;46.604;13.610;2022-08-16T01:52:54;18.60;99.90
40287;DHT22;25998;46.604;13.610;2022-08-16T01:56:05;18.40;99.90
40287;DHT22;25998;46.604;13.610;2022-08-16T01:59:16;18.40;99.90
40287;DHT22;25998;46.604;13.610;2022-08-16T02:02:27;18.60;99.90
40287;DHT22;25998;46.604;13.610;2022-08-16T02:05:40;18.30;99.90
40287;DHT22;25998;46.604;13.610;2022-08-16T02:08:51;18.00;99.90
40287;DHT22;25998;46.604;13.610;2022-08-16T02:12:07;17.80;99.90
40287;DHT22;25998;46.604;13.610;2022-08-16T02:15:23;17.80;99.90
40287;DHT22;25998;46.604;13.610;2022-08-16T02:18:35;17.90;99.90
40287;DHT22;25998;46.604;13.610;2022-08-16T02:21:50;17.90;99.90
40287;DHT22;25998;46.604;13.610;2022-08-16T02:25:07;17.80;99.90
40287;DHT22;25998;46.604;13.610;2022-08-16T02:28:21;17.70;99.90
40287;DHT22;25998;46.604;13.610;2022-08-16T02:31:33;17.90;99.90
40287;DHT22;25998;46.604;13.610;2022-08-16T02:34:44;17.90;99.90
40287;DHT22;25998;46.604;13.610;2022-08-16T02:37:55;17.80;99.90
40287;DHT22;25998;46.604;13.610;2022-08-16T02:41:08;17.70;99.90
40287;DHT22;25998;46.604;13.610;2022-08-16T02:44:19;17.50;99.90
40287;DHT22;25998;46.604;13.610;2022-08-16T02:47:30;17.50;99.90
40287;DHT22;25998;46.604;13.610;2022-08-16T02:50:41;17.60;99.90
40287;DHT22;25998;46.604;13.610;2022-08-16T02:53:52;17.70;99.90
40287;DHT22;25998;46.604;13.610;2022-08-16T02:57:04;17.70;99.90
40287;DHT22;25998;46.604;13.610;2022-08-16T03:00:16;17.50;99.90
40287;DHT22;25998;46.604;13.610;2022-08-16T03:03:28;17.60;99.90
40287;DHT22;25998;46.604;13.610;2022-08-16T03:06:39;17.80;99.90
40287;DHT22;25998;46.604;13.610;2022-08-16T03:09:50;17.90;99.90
40287;DHT22;25998;46.604;13.610;2022-08-16T03:13:01;17.80;99.90
40287;DHT22;25998;46.604;13.610;2022-08-16T03:16:12;17.60;99.90
40287;DHT22;25998;46.604;13.610;2022-08-16T03:19:23;17.50;99.90
40287;DHT22;25998;46.604;13.610;2022-08-16T03:22:34;17.40;99.90
40287;DHT22;25998;46.604;13.610;2022-08-16T03:25:45;17.50;99.90
40287;DHT22;25998;46.604;13.610;2022-08-16T03:28:56;17.70;99.90
40287;DHT22;25998;46.604;13.610;2022-08-16T03:32:10;17.70;99.90
40287;DHT22;25998;46.604;13.610;2022-08-16T03:35:24;17.50;99.90
40287;DHT22;25998;46.604;13.610;2022-08-16T03:38:35;17.60;99.90
40287;DHT22;25998;46.604;13.610;2022-08-16T03:41:46;17.30;99.90
40287;DHT22;25998;46.604;13.610;2022-08-16T03:44:57;17.20;99.90
40287;DHT22;25998;46.604;13.610;2022-08-16T03:48:09;17.10;99.90
40287;DHT22;25998;46.604;13.610;2022-08-16T03:51:20;17.40;99.90
40287;DHT22;25998;46.604;13.610;2022-08-16T03:54:31;17.40;99.90
40287;DHT22;25998;46.604;13.610;2022-08-16T03:57:43;17.60;99.90
40287;DHT22;25998;46.604;13.610;2022-08-16T04:00:54;17.70;99.90
40287;DHT22;25998;46.604;13.610;2022-08-16T04:04:04;17.80;99.90
40287;DHT22;25998;46.604;13.610;2022-08-16T04:07:16;17.80;99.90
40287;DHT22;25998;46.604;13.610;2022-08-16T04:10:27;17.40;99.90
40287;DHT22;25998;46.604;13.610;2022-08-16T04:13:38;17.00;99.90
40287;DHT22;25998;46.604;13.610;2022-08-16T04:16:52;17.00;99.90
40287;DHT22;25998;46.604;13.610;2022-08-16T04:20:07;16.90;99.90
40287;DHT22;25998;46.604;13.610;2022-08-16T04:23:20;17.10;99.90
40287;DHT22;25998;46.604;13.610;2022-08-16T04:26:32;17.20;99.90
40287;DHT22;25998;46.604;13.610;2022-08-16T04:29:43;17.30;99.90
40287;DHT22;25998;46.604;13.610;2022-08-16T04:32:54;17.10;99.90
40287;DHT22;25998;46.604;13.610;2022-08-16T04:36:06;16.90;99.90
40287;DHT22;25998;46.604;13.610;2022-08-16T04:39:17;16.90;99.90
40287;DHT22;25998;46.604;13.610;2022-08-16T04:42:28;17.10;99.90
40287;DHT22;25998;46.604;13.610;2022-08-16T04:45:39;17.30;99.90
40287;DHT22;25998;46.604;13.610;2022-08-16T04:48:50;17.10;99.90
40287;DHT22;25998;46.604;13.610;2022-08-16T04:52:01;17.10;99.90
40287;DHT22;25998;46.604;13.610;2022-08-16T04:55:15;16.90;99.90
40287;DHT22;25998;46.604;13.610;2022-08-16T04:58:26;16.70;99.90
40287;DHT22;25998;46.604;13.610;2022-08-16T05:01:38;16.70;99.90
40287;DHT22;25998;46.604;13.610;2022-08-16T05:04:49;16.80;99.90
40287;DHT22;25998;46.604;13.610;2022-08-16T05:08:03;16.90;99.90
40287;DHT22;25998;46.604;13.610;2022-08-16T05:11:14;17.10;99.90
40287;DHT22;25998;46.604;13.610;2022-08-16T05:14:25;17.30;99.90
40287;DHT22;25998;46.604;13.610;2022-08-16T05:17:37;17.30;99.90
40287;DHT22;25998;46.604;13.610;2022-08-16T05:20:48;17.50;99.90
40287;DHT22;25998;46.604;13.610;2022-08-16T05:23:59;17.70;99.90
40287;DHT22;25998;46.604;13.610;2022-08-16T05:27:10;17.80;99.90
40287;DHT22;25998;46.604;13.610;2022-08-16T05:30:21;17.80;99.90
40287;DHT22;25998;46.604;13.610;2022-08-16T05:33:32;17.60;99.90
40287;DHT22;25998;46.604;13.610;2022-08-16T05:36:43;17.30;99.90
40287;DHT22;25998;46.604;13.610;2022-08-16T05:39:54;17.20;99.90
40287;DHT22;25998;46.604;13.610;2022-08-16T05:43:05;17.30;99.90
40287;DHT22;25998;46.604;13.610;2022-08-16T05:46:16;17.40;99.90
40287;DHT22;25998;46.604;13.610;2022-08-16T05:49:30;17.40;99.90
40287;DHT22;25998;46.604;13.610;2022-08-16T05:52:41;17.40;99.90
40287;DHT22;25998;46.604;13.610;2022-08-16T05:55:52;17.30;99.90
40287;DHT22;25998;46.604;13.610;2022-08-16T05:59:04;17.30;99.90
40287;DHT22;25998;46.604;13.610;2022-08-16T06:02:16;17.30;99.90
40287;DHT22;25998;46.604;13.610;2022-08-16T06:05:28;17.50;99.90
40287;DHT22;25998;46.604;13.610;2022-08-16T06:08:40;17.60;99.90
40287;DHT22;25998;46.604;13.610;2022-08-16T06:11:54;17.80;99.90
40287;DHT22;25998;46.604;13.610;2022-08-16T06:15:15;18.00;99.90
40287;DHT22;25998;46.604;13.610;2022-08-16T06:18:27;18.00;99.90
40287;DHT22;25998;46.604;13.610;2022-08-16T06:21:37;18.00;99.90
40287;DHT22;25998;46.604;13.610;2022-08-16T06:24:51;18.10;99.90
40287;DHT22;25998;46.604;13.610;2022-08-16T06:28:03;18.20;99.90
40287;DHT22;25998;46.604;13.610;2022-08-16T06:31:16;18.30;99.90
40287;DHT22;25998;46.604;13.610;2022-08-16T06:34:27;18.30;99.90
40287;DHT22;25998;46.604;13.610;2022-08-16T06:37:38;18.40;99.90
40287;DHT22;25998;46.604;13.610;2022-08-16T06:40:50;18.50;99.90
40287;DHT22;25998;46.604;13.610;2022-08-16T06:44:01;18.60;99.90
40287;DHT22;25998;46.604;13.610;2022-08-16T06:47:13;18.80;99.90
40287;DHT22;25998;46.604;13.610;2022-08-16T06:50:24;19.20;99.90
40287;DHT22;25998;46.604;13.610;2022-08-16T06:53:35;19.70;99.90
40287;DHT22;25998;46.604;13.610;2022-08-16T06:56:46;20.60;99.90
40287;DHT22;25998;46.604;13.610;2022-08-16T06:59:56;21.00;99.90
40287;DHT22;25998;46.604;13.610;2022-08-16T07:03:07;21.80;99.90
40287;DHT22;25998;46.604;13.610;2022-08-16T07:06:19;22.50;99.90
40287;DHT22;25998;46.604;13.610;2022-08-16T07:09:32;23.00;99.90
40287;DHT22;25998;46.604;13.610;2022-08-16T07:12:43;23.40;99.90
40287;DHT22;25998;46.604;13.610;2022-08-16T07:15:55;23.60;99.90
40287;DHT22;25998;46.604;13.610;2022-08-16T07:19:07;23.70;99.00
40287;DHT22;25998;46.604;13.610;2022-08-16T07:22:21;24.00;98.70
40287;DHT22;25998;46.604;13.610;2022-08-16T07:25:33;23.90;99.90
40287;DHT22;25998;46.604;13.610;2022-08-16T07:28:44;24.10;99.90
40287;DHT22;25998;46.604;13.610;2022-08-16T07:31:55;24.20;99.90
40287;DHT22;25998;46.604;13.610;2022-08-16T07:35:07;24.50;97.50
40287;DHT22;25998;46.604;13.610;2022-08-16T07:38:18;24.70;96.00
40287;DHT22;25998;46.604;13.610;2022-08-16T07:41:29;25.00;96.70
40287;DHT22;25998;46.604;13.610;2022-08-16T07:44:40;25.50;95.70
40287;DHT22;25998;46.604;13.610;2022-08-16T07:47:50;25.90;94.90
40287;DHT22;25998;46.604;13.610;2022-08-16T07:51:02;26.20;94.90
40287;DHT22;25998;46.604;13.610;2022-08-16T07:54:13;26.40;95.00
40287;DHT22;25998;46.604;13.610;2022-08-16T07:57:24;26.50;94.20
40287;DHT22;25998;46.604;13.610;2022-08-16T08:00:36;26.40;94.50
40287;DHT22;25998;46.604;13.610;2022-08-16T08:03:47;26.50;94.00
40287;DHT22;25998;46.604;13.610;2022-08-16T08:06:59;26.70;94.10
40287;DHT22;25998;46.604;13.610;2022-08-16T08:10:09;26.60;93.30
40287;DHT22;25998;46.604;13.610;2022-08-16T08:13:21;26.50;93.80
40287;DHT22;25998;46.604;13.610;2022-08-16T08:16:32;26.70;92.80
40287;DHT22;25998;46.604;13.610;2022-08-16T08:19:43;27.20;92.60
40287;DHT22;25998;46.604;13.610;2022-08-16T08:22:56;27.20;92.50
40287;DHT22;25998;46.604;13.610;2022-08-16T08:26:08;27.70;93.50
40287;DHT22;25998;46.604;13.610;2022-08-16T08:29:19;27.50;92.30
40287;DHT22;25998;46.604;13.610;2022-08-16T08:32:30;27.40;92.40
40287;DHT22;25998;46.604;13.610;2022-08-16T08:35:42;27.20;93.00
40287;DHT22;25998;46.604;13.610;2022-08-16T08:38:53;27.40;91.60
40287;DHT22;25998;46.604;13.610;2022-08-16T08:42:05;27.40;92.60
40287;DHT22;25998;46.604;13.610;2022-08-16T08:45:16;27.70;93.20
40287;DHT22;25998;46.604;13.610;2022-08-16T08:48:31;28.20;90.90
40287;DHT22;25998;46.604;13.610;2022-08-16T08:51:43;28.20;90.60
40287;DHT22;25998;46.604;13.610;2022-08-16T08:54:57;28.40;91.90
40287;DHT22;25998;46.604;13.610;2022-08-16T08:58:08;28.90;90.20
40287;DHT22;25998;46.604;13.610;2022-08-16T09:01:24;28.70;90.00
40287;DHT22;25998;46.604;13.610;2022-08-16T09:04:38;28.80;89.00
40287;DHT22;25998;46.604;13.610;2022-08-16T09:07:49;29.10;85.40
40287;DHT22;25998;46.604;13.610;2022-08-16T09:11:01;29.30;87.70
40287;DHT22;25998;46.604;13.610;2022-08-16T09:14:12;29.10;85.20
40287;DHT22;25998;46.604;13.610;2022-08-16T09:17:26;29.10;85.30
40287;DHT22;25998;46.604;13.610;2022-08-16T09:20:37;29.20;87.10
40287;DHT22;25998;46.604;13.610;2022-08-16T09:23:48;29.30;84.10
40287;DHT22;25998;46.604;13.610;2022-08-16T09:26:59;29.20;83.50
40287;DHT22;25998;46.604;13.610;2022-08-16T09:30:11;29.10;83.70
40287;DHT22;25998;46.604;13.610;2022-08-16T09:33:22;29.40;85.10
40287;DHT22;25998;46.604;13.610;2022-08-16T09:36:33;29.20;80.20
40287;DHT22;25998;46.604;13.610;2022-08-16T09:39:44;29.50;81.10
40287;DHT22;25998;46.604;13.610;2022-08-16T09:42:55;29.30;81.50
40287;DHT22;25998;46.604;13.610;2022-08-16T09:46:07;29.30;82.70
40287;DHT22;25998;46.604;13.610;2022-08-16T09:49:20;29.70;84.30
40287;DHT22;25998;46.604;13.610;2022-08-16T09:52:31;29.80;81.50
40287;DHT22;25998;46.604;13.610;2022-08-16T09:55:47;29.90;81.70
40287;DHT22;25998;46.604;13.610;2022-08-16T09:59:00;29.70;79.60
40287;DHT22;25998;46.604;13.610;2022-08-16T10:02:11;30.00;80.30
40287;DHT22;25998;46.604;13.610;2022-08-16T10:05:22;29.80;80.20
40287;DHT22;25998;46.604;13.610;2022-08-16T10:08:33;29.80;80.00
40287;DHT22;25998;46.604;13.610;2022-08-16T10:11:44;30.30;82.00
40287;DHT22;25998;46.604;13.610;2022-08-16T10:15:15;30.30;80.60
40287;DHT22;25998;46.604;13.610;2022-08-16T10:18:27;30.20;80.00
40287;DHT22;25998;46.604;13.610;2022-08-16T10:21:39;30.30;81.00
40287;DHT22;25998;46.604;13.610;2022-08-16T10:24:51;30.70;80.80
40287;DHT22;25998;46.604;13.610;2022-08-16T10:28:02;31.00;77.50
40287;DHT22;25998;46.604;13.610;2022-08-16T10:31:13;30.80;79.80
40287;DHT22;25998;46.604;13.610;2022-08-16T10:34:24;30.80;80.40
40287;DHT22;25998;46.604;13.610;2022-08-16T10:37:34;31.10;80.20
40287;DHT22;25998;46.604;13.610;2022-08-16T10:40:45;31.00;77.00
40287;DHT22;25998;46.604;13.610;2022-08-16T10:43:56;31.00;79.50
40287;DHT22;25998;46.604;13.610;2022-08-16T10:47:09;30.90;78.00
40287;DHT22;25998;46.604;13.610;2022-08-16T10:50:21;30.60;76.90
40287;DHT22;25998;46.604;13.610;2022-08-16T10:53:32;30.40;78.90
40287;DHT22;25998;46.604;13.610;2022-08-16T10:56:44;30.70;77.30
40287;DHT22;25998;46.604;13.610;2022-08-16T10:59:55;31.00;79.30
40287;DHT22;25998;46.604;13.610;2022-08-16T11:03:07;30.80;78.40
40287;DHT22;25998;46.604;13.610;2022-08-16T11:06:19;30.70;79.80
40287;DHT22;25998;46.604;13.610;2022-08-16T11:09:30;30.60;78.80
40287;DHT22;25998;46.604;13.610;2022-08-16T11:12:42;30.60;80.80
40287;DHT22;25998;46.604;13.610;2022-08-16T11:15:54;30.80;78.50
40287;DHT22;25998;46.604;13.610;2022-08-16T11:19:10;31.00;81.30
40287;DHT22;25998;46.604;13.610;2022-08-16T11:22:21;31.10;79.40
40287;DHT22;25998;46.604;13.610;2022-08-16T11:25:33;31.20;78.40
40287;DHT22;25998;46.604;13.610;2022-08-16T11:28:44;31.40;78.80
40287;DHT22;25998;46.604;13.610;2022-08-16T11:31:55;31.00;75.70
40287;DHT22;25998;46.604;13.610;2022-08-16T11:35:14;31.00;75.50
40287;DHT22;25998;46.604;13.610;2022-08-16T11:38:26;30.90;75.30
40287;DHT22;25998;46.604;13.610;2022-08-16T11:41:37;31.30;75.90
40287;DHT22;25998;46.604;13.610;2022-08-16T11:44:48;30.80;76.00
40287;DHT22;25998;46.604;13.610;2022-08-16T11:47:58;30.40;78.70
40287;DHT22;25998;46.604;13.610;2022-08-16T11:51:10;30.30;75.30
40287;DHT22;25998;46.604;13.610;2022-08-16T11:54:21;30.10;77.30
40287;DHT22;25998;46.604;13.610;2022-08-16T11:57:33;30.00;78.80
40287;DHT22;25998;46.604;13.610;2022-08-16T12:00:44;30.60;76.00
40287;DHT22;25998;46.604;13.610;2022-08-16T12:03:56;31.30;76.60
40287;DHT22;25998;46.604;13.610;2022-08-16T12:07:10;31.40;73.80
40287;DHT22;25998;46.604;13.610;2022-08-16T12:10:25;31.30;72.30
40287;DHT22;25998;46.604;13.610;2022-08-16T12:13:36;31.30;72.60
40287;DHT22;25998;46.604;13.610;2022-08-16T12:16:47;31.70;73.20
40287;DHT22;25998;46.604;13.610;2022-08-16T12:20:00;31.60;73.70
40287;DHT22;25998;46.604;13.610;2022-08-16T12:23:11;31.40;73.30
40287;DHT22;25998;46.604;13.610;2022-08-16T12:26:22;31.30;74.70
40287;DHT22;25998;46.604;13.610;2022-08-16T12:29:33;31.70;70.40
40287;DHT22;25998;46.604;13.610;2022-08-16T12:32:45;32.00;73.30
40287;DHT22;25998;46.604;13.610;2022-08-16T12:35:55;32.10;72.70
40287;DHT22;25998;46.604;13.610;2022-08-16T12:39:06;32.10;71.30
40287;DHT22;25998;46.604;13.610;2022-08-16T12:42:17;32.10;70.90
40287;DHT22;25998;46.604;13.610;2022-08-16T12:45:37;31.70;73.30
40287;DHT22;25998;46.604;13.610;2022-08-16T12:48:48;31.50;71.20
40287;DHT22;25998;46.604;13.610;2022-08-16T12:52:08;31.80;73.30
40287;DHT22;25998;46.604;13.610;2022-08-16T12:55:20;31.50;73.70
40287;DHT22;25998;46.604;13.610;2022-08-16T12:58:33;31.20;73.70
40287;DHT22;25998;46.604;13.610;2022-08-16T13:01:44;30.80;73.80
40287;DHT22;25998;46.604;13.610;2022-08-16T13:04:57;30.70;75.00
40287;DHT22;25998;46.604;13.610;2022-08-16T13:08:10;31.00;72.80
40287;DHT22;25998;46.604;13.610;2022-08-16T13:11:35;31.00;74.50
40287;DHT22;25998;46.604;13.610;2022-08-16T13:14:51;31.10;73.10
40287;DHT22;25998;46.604;13.610;2022-08-16T13:18:03;31.30;73.00
40287;DHT22;25998;46.604;13.610;2022-08-16T13:21:14;31.80;76.00
40287;DHT22;25998;46.604;13.610;2022-08-16T13:24:25;31.70;69.50
40287;DHT22;25998;46.604;13.610;2022-08-16T13:27:36;31.30;72.00
40287;DHT22;25998;46.604;13.610;2022-08-16T13:30:51;31.30;71.80
40287;DHT22;25998;46.604;13.610;2022-08-16T13:34:02;31.10;72.90
40287;DHT22;25998;46.604;13.610;2022-08-16T13:37:13;31.30;73.40
40287;DHT22;25998;46.604;13.610;2022-08-16T13:40:23;31.80;70.30
40287;DHT22;25998;46.604;13.610;2022-08-16T13:43:35;32.30;71.20
40287;DHT22;25998;46.604;13.610;2022-08-16T13:46:47;31.90;69.40
40287;DHT22;25998;46.604;13.610;2022-08-16T13:49:59;31.80;70.40
40287;DHT22;25998;46.604;13.610;2022-08-16T13:53:10;31.80;72.50
40287;DHT22;25998;46.604;13.610;2022-08-16T13:56:22;31.80;73.00
40287;DHT22;25998;46.604;13.610;2022-08-16T13:59:34;31.80;73.60
40287;DHT22;25998;46.604;13.610;2022-08-16T14:02:45;32.00;70.10
40287;DHT22;25998;46.604;13.610;2022-08-16T14:05:59;32.00;70.30
40287;DHT22;25998;46.604;13.610;2022-08-16T14:09:11;32.00;68.50
40287;DHT22;25998;46.604;13.610;2022-08-16T14:12:25;31.80;68.00
40287;DHT22;25998;46.604;13.610;2022-08-16T14:15:37;32.00;68.40
40287;DHT22;25998;46.604;13.610;2022-08-16T14:18:48;32.00;69.40
40287;DHT22;25998;46.604;13.610;2022-08-16T14:22:00;32.10;70.80
40287;DHT22;25998;46.604;13.610;2022-08-16T14:25:15;32.00;67.90
40287;DHT22;25998;46.604;13.610;2022-08-16T14:28:26;31.70;69.60
40287;DHT22;25998;46.604;13.610;2022-08-16T14:31:37;31.80;69.00
40287;DHT22;25998;46.604;13.610;2022-08-16T14:34:48;31.70;70.80
40287;DHT22;25998;46.604;13.610;2022-08-16T14:38:00;31.60;70.10
40287;DHT22;25998;46.604;13.610;2022-08-16T14:41:11;31.70;68.20
40287;DHT22;25998;46.604;13.610;2022-08-16T14:44:22;31.60;69.50
40287;DHT22;25998;46.604;13.610;2022-08-16T14:47:34;31.60;71.20
40287;DHT22;25998;46.604;13.610;2022-08-16T14:50:46;31.60;70.00
40287;DHT22;25998;46.604;13.610;2022-08-16T14:53:57;31.70;70.50
40287;DHT22;25998;46.604;13.610;2022-08-16T14:57:11;31.80;70.80
40287;DHT22;25998;46.604;13.610;2022-08-16T15:00:25;31.70;70.10
40287;DHT22;25998;46.604;13.610;2022-08-16T15:03:36;31.70;68.70
40287;DHT22;25998;46.604;13.610;2022-08-16T15:06:48;31.50;70.30
40287;DHT22;25998;46.604;13.610;2022-08-16T15:09:59;31.40;71.40
40287;DHT22;25998;46.604;13.610;2022-08-16T15:13:10;31.20;70.90
40287;DHT22;25998;46.604;13.610;2022-08-16T15:16:21;31.20;72.60
40287;DHT22;25998;46.604;13.610;2022-08-16T15:19:33;31.30;72.10
40287;DHT22;25998;46.604;13.610;2022-08-16T15:22:47;31.50;71.20
40287;DHT22;25998;46.604;13.610;2022-08-16T15:25:58;31.40;72.20
40287;DHT22;25998;46.604;13.610;2022-08-16T15:29:09;31.30;72.20
40287;DHT22;25998;46.604;13.610;2022-08-16T15:32:20;31.20;71.10
40287;DHT22;25998;46.604;13.610;2022-08-16T15:35:31;30.90;70.90
40287;DHT22;25998;46.604;13.610;2022-08-16T15:38:52;31.00;73.30
40287;DHT22;25998;46.604;13.610;2022-08-16T15:42:06;30.80;74.20
40287;DHT22;25998;46.604;13.610;2022-08-16T15:45:18;30.80;74.20
40287;DHT22;25998;46.604;13.610;2022-08-16T15:48:49;31.00;74.00
40287;DHT22;25998;46.604;13.610;2022-08-16T15:52:00;31.10;73.20
40287;DHT22;25998;46.604;13.610;2022-08-16T15:55:11;30.90;75.60
40287;DHT22;25998;46.604;13.610;2022-08-16T15:58:22;30.90;74.50
40287;DHT22;25998;46.604;13.610;2022-08-16T16:01:33;30.90;75.80
40287;DHT22;25998;46.604;13.610;2022-08-16T16:04:44;30.90;78.40
40287;DHT22;25998;46.604;13.610;2022-08-16T16:07:55;30.50;78.50
40287;DHT22;25998;46.604;13.610;2022-08-16T16:11:06;29.90;81.50
40287;DHT22;25998;46.604;13.610;2022-08-16T16:14:17;29.40;82.00
40287;DHT22;25998;46.604;13.610;2022-08-16T16:17:29;29.30;82.80
40287;DHT22;25998;46.604;13.610;2022-08-16T16:20:43;29.20;83.60
40287;DHT22;25998;46.604;13.610;2022-08-16T16:23:56;29.30;82.60
40287;DHT22;25998;46.604;13.610;2022-08-16T16:27:07;29.40;82.90
40287;DHT22;25998;46.604;13.610;2022-08-16T16:30:19;29.40;78.80
40287;DHT22;25998;46.604;13.610;2022-08-16T16:33:31;29.60;78.20
40287;DHT22;25998;46.604;13.610;2022-08-16T16:36:43;29.70;78.10
40287;DHT22;25998;46.604;13.610;2022-08-16T16:39:54;29.60;79.00
40287;DHT22;25998;46.604;13.610;2022-08-16T16:43:06;29.60;76.80
40287;DHT22;25998;46.604;13.610;2022-08-16T16:46:24;29.40;82.70
40287;DHT22;25998;46.604;13.610;2022-08-16T16:49:35;28.80;84.70
40287;DHT22;25998;46.604;13.610;2022-08-16T16:52:49;28.50;85.50
40287;DHT22;25998;46.604;13.610;2022-08-16T16:56:03;27.90;87.00
40287;DHT22;25998;46.604;13.610;2022-08-16T16:59:14;27.60;87.00
40287;DHT22;25998;46.604;13.610;2022-08-16T17:02:25;27.40;86.70
40287;DHT22;25998;46.604;13.610;2022-08-16T17:05:36;27.50;87.70
40287;DHT22;25998;46.604;13.610;2022-08-16T17:08:47;27.10;88.60
40287;DHT22;25998;46.604;13.610;2022-08-16T17:11:58;26.90;89.90
40287;DHT22;25998;46.604;13.610;2022-08-16T17:15:10;26.70;89.40
40287;DHT22;25998;46.604;13.610;2022-08-16T17:18:21;26.70;86.60
40287;DHT22;25998;46.604;13.610;2022-08-16T17:21:35;26.80;88.00
40287;DHT22;25998;46.604;13.610;2022-08-16T17:24:50;26.40;90.50
40287;DHT22;25998;46.604;13.610;2022-08-16T17:28:02;26.30;90.60
40287;DHT22;25998;46.604;13.610;2022-08-16T17:31:13;25.90;91.10
40287;DHT22;25998;46.604;13.610;2022-08-16T17:34:24;25.60;91.50
40287;DHT22;25998;46.604;13.610;2022-08-16T17:37:36;25.50;92.10
40287;DHT22;25998;46.604;13.610;2022-08-16T17:40:51;25.30;92.10
40287;DHT22;25998;46.604;13.610;2022-08-16T17:44:02;25.10;92.20
40287;DHT22;25998;46.604;13.610;2022-08-16T17:47:14;24.90;92.20
40287;DHT22;25998;46.604;13.610;2022-08-16T17:50:25;24.90;92.40
40287;DHT22;25998;46.604;13.610;2022-08-16T17:53:37;24.80;92.50
40287;DHT22;25998;46.604;13.610;2022-08-16T17:56:49;25.00;92.30
40287;DHT22;25998;46.604;13.610;2022-08-16T18:00:00;24.90;92.40
40287;DHT22;25998;46.604;13.610;2022-08-16T18:03:18;24.90;92.20
40287;DHT22;25998;46.604;13.610;2022-08-16T18:06:29;24.90;92.00
40287;DHT22;25998;46.604;13.610;2022-08-16T18:09:41;24.90;92.30
40287;DHT22;25998;46.604;13.610;2022-08-16T18:12:53;24.60;92.60
40287;DHT22;25998;46.604;13.610;2022-08-16T18:16:04;24.50;92.50
40287;DHT22;25998;46.604;13.610;2022-08-16T18:19:16;24.50;91.80
40287;DHT22;25998;46.604;13.610;2022-08-16T18:22:30;24.40;92.20
40287;DHT22;25998;46.604;13.610;2022-08-16T18:25:43;24.30;92.70
40287;DHT22;25998;46.604;13.610;2022-08-16T18:28:55;24.30;91.90
40287;DHT22;25998;46.604;13.610;2022-08-16T18:32:06;24.40;92.00
40287;DHT22;25998;46.604;13.610;2022-08-16T18:35:19;24.40;91.80
40287;DHT22;25998;46.604;13.610;2022-08-16T18:38:31;24.40;91.50
40287;DHT22;25998;46.604;13.610;2022-08-16T18:41:42;24.10;92.30
40287;DHT22;25998;46.604;13.610;2022-08-16T18:44:56;24.00;92.30
40287;DHT22;25998;46.604;13.610;2022-08-16T18:48:09;23.70;92.80
40287;DHT22;25998;46.604;13.610;2022-08-16T18:51:21;23.40;93.20
40287;DHT22;25998;46.604;13.610;2022-08-16T18:54:32;23.50;93.10
40287;DHT22;25998;46.604;13.610;2022-08-16T18:57:44;23.40;93.30
40287;DHT22;25998;46.604;13.610;2022-08-16T19:00:56;23.20;93.60
40287;DHT22;25998;46.604;13.610;2022-08-16T19:04:07;23.20;93.50
40287;DHT22;25998;46.604;13.610;2022-08-16T19:07:24;23.10;93.90
40287;DHT22;25998;46.604;13.610;2022-08-16T19:10:36;23.20;93.30
40287;DHT22;25998;46.604;13.610;2022-08-16T19:13:48;23.10;93.50
40287;DHT22;25998;46.604;13.610;2022-08-16T19:16:59;23.00;93.70
40287;DHT22;25998;46.604;13.610;2022-08-16T19:20:11;23.00;93.70
40287;DHT22;25998;46.604;13.610;2022-08-16T19:23:26;22.80;93.90
40287;DHT22;25998;46.604;13.610;2022-08-16T19:26:37;22.70;93.90
40287;DHT22;25998;46.604;13.610;2022-08-16T19:29:48;22.60;93.90
40287;DHT22;25998;46.604;13.610;2022-08-16T19:32:59;22.70;93.80
40287;DHT22;25998;46.604;13.610;2022-08-16T19:36:10;22.70;93.70
40287;DHT22;25998;46.604;13.610;2022-08-16T19:39:21;22.70;93.70
40287;DHT22;25998;46.604;13.610;2022-08-16T19:42:33;22.70;93.30
40287;DHT22;25998;46.604;13.610;2022-08-16T19:45:44;22.70;93.70
40287;DHT22;25998;46.604;13.610;2022-08-16T19:48:55;22.60;93.80
40287;DHT22;25998;46.604;13.610;2022-08-16T19:55:20;22.20;94.40
40287;DHT22;25998;46.604;13.610;2022-08-16T19:58:31;22.10;94.80